Time;durP1;ratioP1;P1;durP2;ratioP2;P2;SDS_P1;SDS_P2;PMS_P1;PMS_P2;Temp;Humidity;BMP_temperature;BMP_pressure;BME280_temperature;BME280_humidity;BME280_pressure;Samples;Min_cycle;Max_cycle;Signal;HPM_P1;HPM_P2
2022/08/07 00:00:52;;;;;;;;;16.75;15.50;;;;;29.02;45.42;100324.31;146607;578;46020;-82
2022/08/07 00:03:47;;;;;;;;;16.25;15.25;;;;;29.00;45.54;100322.56;146606;572;46016;-77
2022/08/07 00:06:49;;;;;;;;;15.75;15.50;;;;;29.00;45.17;100324.31;146609;661;46010;-80
2022/08/07 00:09:44;;;;;;;;;17.25;16.25;;;;;28.97;45.29;100316.41;146605;564;46034;-76
2022/08/07 00:12:43;;;;;;;;;16.00;15.00;;;;;28.91;45.36;100305.91;146609;584;46012;-78
2022/08/07 00:15:36;;;;;;;;;12.00;11.00;;;;;28.85;46.23;100307.00;146605;568;46924;-79
2022/08/07 00:18:35;;;;;;;;;15.50;14.50;;;;;28.80;45.36;100306.25;146608;566;46021;-85
2022/08/07 00:21:37;;;;;;;;;17.00;16.25;;;;;28.76;46.28;100299.28;146604;602;46012;-80
2022/08/07 00:24:29;;;;;;;;;16.25;15.25;;;;;28.70;47.25;100292.34;146608;668;46021;-82
2022/08/07 00:27:23;;;;;;;;;14.25;13.75;;;;;28.66;46.24;100296.03;146604;582;47012;-77
2022/08/07 00:30:23;;;;;;;;;17.00;15.75;;;;;28.68;45.44;100286.16;146605;593;46020;-83
2022/08/07 00:33:25;;;;;;;;;18.25;16.00;;;;;28.74;46.12;100287.78;146607;572;46016;-74
2022/08/07 00:36:28;;;;;;;;;17.50;16.50;;;;;28.85;45.88;100304.34;146608;602;46020;-76
2022/08/07 00:39:23;;;;;;;;;15.25;15.25;;;;;28.92;45.72;100305.88;146607;564;46012;-80
2022/08/07 00:42:19;;;;;;;;;13.50;12.50;;;;;28.97;48.24;100309.31;146610;604;45020;-76
2022/08/07 00:45:29;;;;;;;;;;;;;;;;;;;;;
2022/08/07 00:48:27;;;;;;;;;15.50;12.00;;;;;28.95;48.36;100295.13;146609;603;46010;-77
2022/08/07 00:51:25;;;;;;;;;10.00;10.00;;;;;28.95;48.13;100287.09;146606;693;46016;-78
2022/08/07 00:54:17;;;;;;;;;11.25;11.25;;;;;28.95;47.30;100300.44;146608;586;46020;-77
2022/08/07 00:57:16;;;;;;;;;11.75;11.25;;;;;29.00;47.86;100302.97;146607;580;46014;-78
2022/08/07 01:00:24;;;;;;;;;11.50;11.00;;;;;29.05;46.77;100298.41;146607;609;46012;-78
2022/08/07 01:03:25;;;;;;;;;13.25;12.75;;;;;29.08;47.45;100306.31;146608;599;46012;-87
2022/08/07 01:06:21;;;;;;;;;12.00;12.00;;;;;29.07;47.86;100304.56;146607;591;46010;-81
2022/08/07 01:09:19;;;;;;;;;13.50;12.00;;;;;29.06;47.43;100302.81;146606;566;46012;-79
2022/08/07 01:12:19;;;;;;;;;13.00;11.50;;;;;29.04;47.51;100302.00;146611;569;46012;-78
2022/08/07 01:15:17;;;;;;;;;11.50;11.50;;;;;29.04;47.93;100299.34;146607;693;45016;-79
2022/08/07 01:18:14;;;;;;;;;12.00;11.75;;;;;29.02;47.78;100301.16;146608;570;46020;-80
2022/08/07 01:21:22;;;;;;;;;12.50;11.50;;;;;28.96;47.40;100298.66;146606;573;46016;-77
2022/08/07 01:24:26;;;;;;;;;11.75;11.75;;;;;28.91;48.47;100295.25;146608;632;46020;-79
2022/08/07 01:27:30;;;;;;;;;12.50;11.50;;;;;28.84;48.12;100297.22;146606;563;46012;-73
2022/08/07 01:30:45;;;;;;;;;14.75;13.00;;;;;28.74;48.18;100296.66;146608;582;46020;-75
2022/08/07 01:34:06;;;;;;;;;12.75;12.75;;;;;27.37;47.53;100080.28;146607;679;46012;-83
2022/08/07 01:37:05;;;;;;;;;14.00;12.25;;;;;28.62;48.87;100298.81;146609;569;46010;-82
2022/08/07 01:40:22;;;;;;;;;11.00;10.00;;;;;28.65;47.18;100296.06;146605;574;46924;-82
2022/08/07 01:43:18;;;;;;;;;11.75;11.25;;;;;28.69;49.50;100297.69;146611;653;46010;-82
2022/08/07 01:46:14;;;;;;;;;14.50;11.00;;;;;28.67;48.86;100299.56;146606;613;46012;-81
2022/08/07 01:49:12;;;;;;;;;14.00;14.00;;;;;28.69;49.18;100303.03;146611;600;46010;-79
2022/08/07 01:52:14;;;;;;;;;15.00;12.25;;;;;28.64;50.38;100303.19;146607;594;46016;-79
2022/08/07 01:55:22;;;;;;;;;15.00;12.50;;;;;28.53;48.81;100303.50;146610;582;46020;-80
2022/08/07 01:58:44;;;;;;;;;17.75;14.25;;;;;28.44;49.29;100300.22;146606;569;46016;-79
2022/08/07 02:02:10;;;;;;;;;;;;;;;;;;;;;
2022/08/07 02:05:31;;;;;;;;;15.00;14.25;;;;;28.32;49.32;100294.31;146606;564;46016;-79
2022/08/07 02:08:29;;;;;;;;;13.50;13.50;;;;;28.36;50.29;100292.44;146609;574;45021;-79
2022/08/07 02:11:33;;;;;;;;;11.75;11.25;;;;;28.36;50.51;100297.75;146608;581;46014;-77
2022/08/07 02:14:31;;;;;;;;;14.25;13.50;;;;;28.28;49.09;100305.97;146608;574;46013;-80
2022/08/07 02:17:30;;;;;;;;;16.75;14.00;;;;;28.27;49.60;100296.22;146606;588;46012;-84
2022/08/07 02:20:40;;;;;;;;;14.50;10.25;;;;;28.31;48.85;100289.88;146605;582;46010;-79
2022/08/07 02:23:38;;;;;;;;;16.00;14.50;;;;;28.38;49.23;100290.59;146605;637;46017;-79
2022/08/07 02:26:36;;;;;;;;;13.75;12.75;;;;;28.41;49.73;100295.88;146608;636;46020;-77
2022/08/07 02:29:32;;;;;;;;;14.25;12.50;;;;;28.41;49.17;100292.31;146608;604;46012;-84
2022/08/07 02:32:31;;;;;;;;;19.25;16.75;;;;;28.40;48.87;100291.44;146606;613;46026;-82
2022/08/07 02:35:37;;;;;;;;;16.75;15.25;;;;;28.43;49.23;100293.16;146606;626;46016;-79
2022/08/07 02:38:37;;;;;;;;;16.00;14.25;;;;;28.39;50.17;100299.47;146610;606;46011;-78
2022/08/07 02:41:36;;;;;;;;;18.50;14.75;;;;;28.33;49.66;100295.19;146602;565;46029;-77
2022/08/07 02:44:37;;;;;;;;;16.00;15.25;;;;;28.31;49.56;100291.69;146610;588;45030;-79
2022/08/07 02:47:49;;;;;;;;;15.00;14.50;;;;;27.06;49.14;100081.09;146605;608;46012;-77
2022/08/07 02:50:51;;;;;;;;;14.25;13.50;;;;;28.33;49.44;100289.84;146608;595;46020;-77
2022/08/07 02:53:52;;;;;;;;;14.75;13.75;;;;;28.35;49.48;100295.13;146608;683;46012;-77
2022/08/07 02:56:49;;;;;;;;;12.75;12.00;;;;;28.39;49.80;100296.81;146609;580;46012;-77
2022/08/07 03:00:01;;;;;;;;;14.75;14.00;;;;;28.40;50.81;100301.22;146604;587;46017;-80
2022/08/07 03:02:59;;;;;;;;;16.25;14.00;;;;;28.28;49.97;100292.62;146607;586;46020;-77
2022/08/07 03:05:55;;;;;;;;;15.25;14.25;;;;;28.22;50.30;100295.47;146606;611;46016;-79
2022/08/07 03:08:52;;;;;;;;;13.25;13.25;;;;;28.21;50.41;100298.19;146608;601;46012;-78
2022/08/07 03:11:49;;;;;;;;;16.50;14.25;;;;;28.18;51.50;100298.28;146607;570;46016;-78
2022/08/07 03:14:46;;;;;;;;;17.75;16.50;;;;;28.12;50.84;100302.00;146609;575;46013;-78
2022/08/07 03:17:52;;;;;;;;;16.25;13.75;;;;;28.04;50.46;100299.53;146605;569;46035;-77
2022/08/07 03:20:53;;;;;;;;;16.50;16.50;;;;;28.00;52.31;100302.31;146609;607;46020;-83
2022/08/07 03:24:01;;;;;;;;;14.00;13.00;;;;;27.92;51.18;100307.00;146606;607;46035;-81
2022/08/07 03:27:04;;;;;;;;;13.25;13.00;;;;;27.87;51.56;100307.09;146611;617;46010;-74
2022/08/07 03:30:26;;;;;;;;;16.25;13.50;;;;;26.55;49.98;100092.16;146613;573;46013;-83
2022/08/07 03:33:35;;;;;;;;;14.75;14.75;;;;;27.72;50.48;100302.16;146616;637;45020;-79
2022/08/07 03:36:31;;;;;;;;;16.75;15.25;;;;;27.60;51.67;100306.91;146612;572;46013;-80
2022/08/07 03:39:39;;;;;;;;;16.75;16.25;;;;;26.68;51.07;100177.84;146615;601;45021;-85
2022/08/07 03:42:43;;;;;;;;;14.25;14.25;;;;;27.44;50.61;100307.31;146611;705;46016;-80
2022/08/07 03:45:50;;;;;;;;;14.25;12.50;;;;;27.39;50.38;100307.44;146614;604;46020;-85
2022/08/07 03:48:45;;;;;;;;;14.00;13.75;;;;;27.37;51.26;100310.12;146614;584;46014;-83
2022/08/07 03:51:39;;;;;;;;;14.75;13.00;;;;;27.37;50.73;100310.12;146612;577;46013;-90
2022/08/07 03:54:44;;;;;;;;;13.00;13.00;;;;;27.42;49.89;100323.34;146613;645;46016;-89
2022/08/07 03:57:39;;;;;;;;;13.50;13.00;;;;;27.50;50.83;100324.00;146613;604;46020;-82
2022/08/07 04:00:37;;;;;;;;;14.25;12.75;;;;;27.61;50.13;100324.63;146610;610;46017;-79
2022/08/07 04:03:41;;;;;;;;;14.00;14.00;;;;;27.72;49.15;100334.12;146613;590;46020;-92
2022/08/07 04:06:39;;;;;;;;;13.75;12.75;;;;;27.80;49.53;100334.84;146614;619;46012;-89
2022/08/07 04:09:39;;;;;;;;;15.00;14.75;;;;;27.84;50.86;100336.50;146614;580;46027;-88
2022/08/07 04:12:38;;;;;;;;;15.50;15.00;;;;;27.84;49.63;100340.03;146612;599;46012;-90
2022/08/07 04:15:34;;;;;;;;;14.50;14.50;;;;;27.88;49.38;100340.81;146615;584;46010;-91
2022/08/07 04:18:30;;;;;;;;;15.00;13.25;;;;;27.91;50.25;100342.53;146613;609;46012;-82
2022/08/07 04:21:24;;;;;;;;;14.50;13.75;;;;;27.89;50.81;100339.06;146614;569;46011;-81
2022/08/07 04:24:23;;;;;;;;;15.25;14.50;;;;;27.83;50.29;100342.75;146610;573;46014;-81
2022/08/07 04:27:22;;;;;;;;;14.50;13.25;;;;;27.82;50.23;100335.66;146608;600;46010;-81
2022/08/07 04:30:46;;;;;;;;;;;;;;;;;;;;;
2022/08/07 04:33:46;;;;;;;;;14.00;13.50;;;;;27.90;49.65;100341.66;146607;571;46010;-78
2022/08/07 04:36:43;;;;;;;;;16.75;16.75;;;;;27.92;51.13;100345.19;146607;564;46013;-84
2022/08/07 04:39:40;;;;;;;;;13.00;13.00;;;;;27.89;51.18;100333.72;146607;574;46020;-77
2022/08/07 04:42:46;;;;;;;;;;;;;;;;;;;;;
2022/08/07 04:46:12;;;;;;;;;17.00;15.50;;;;;26.69;49.37;100116.62;146607;594;46012;-80
2022/08/07 04:49:32;;;;;;;;;14.00;13.00;;;;;28.18;50.01;100362.25;146605;577;46923;-81
2022/08/07 04:52:59;;;;;;;;;16.25;15.25;;;;;27.09;49.06;100131.56;146608;612;45021;-78
2022/08/07 04:56:33;;;;;;;;;15.50;15.00;;;;;28.60;49.14;100346.00;146606;578;46016;-90
2022/08/07 05:00:03;;;;;;;;;15.75;15.50;;;;;28.75;49.62;100345.53;146606;620;46021;-77
2022/08/07 05:03:12;;;;;;;;;15.50;13.00;;;;;28.88;49.19;100349.63;146607;611;46012;-79
2022/08/07 05:06:36;;;;;;;;;15.25;14.00;;;;;29.08;48.06;100345.50;146605;598;46010;-86
2022/08/07 05:10:14;;;;;;;;;15.75;14.25;;;;;28.55;47.27;100232.31;146606;570;46014;-88
2022/08/07 05:13:39;;;;;;;;;20.50;15.50;;;;;28.29;46.97;100136.22;146606;570;46021;-88
2022/08/07 05:16:46;;;;;;;;;16.75;15.50;;;;;29.77;47.20;100354.81;146606;576;46014;-85
2022/08/07 05:20:12;;;;;;;;;12.25;11.75;;;;;28.84;45.59;100147.81;146605;628;47020;-82
2022/08/07 05:23:12;;;;;;;;;14.75;14.75;;;;;30.30;46.67;100361.94;146606;659;46016;-82
2022/08/07 05:26:09;;;;;;;;;13.25;13.25;;;;;30.51;46.97;100362.97;146607;623;46010;-83
2022/08/07 05:29:17;;;;;;;;;15.50;15.00;;;;;30.71;45.81;100371.09;146606;564;46016;-85
2022/08/07 05:32:23;;;;;;;;;15.00;13.75;;;;;30.89;45.26;100371.38;146607;564;46020;-84
2022/08/07 05:35:27;;;;;;;;;15.25;14.75;;;;;30.93;46.28;100376.53;146606;586;46013;-81
2022/08/07 05:38:42;;;;;;;;;16.50;15.00;;;;;29.79;45.55;100173.94;146608;597;46010;-88
2022/08/07 05:41:48;;;;;;;;;;;;;;;;;;;;;
2022/08/07 05:44:46;;;;;;;;;18.50;15.25;;;;;31.08;46.39;100382.25;146606;594;46023;-82
2022/08/07 05:47:46;;;;;;;;;16.75;15.50;;;;;31.23;46.28;100374.47;146605;600;46925;-79
2022/08/07 05:51:00;;;;;;;;;14.75;14.75;;;;;31.39;45.43;100381.94;146607;668;46012;-79
2022/08/07 05:53:58;;;;;;;;;18.50;15.50;;;;;31.48;45.34;100384.22;146608;595;46012;-79
2022/08/07 05:56:55;;;;;;;;;16.25;14.50;;;;;31.64;45.65;100384.47;146600;596;48922;-82
2022/08/07 05:59:57;;;;;;;;;13.50;12.50;;;;;31.80;44.90;100382.03;146608;569;46012;-79
2022/08/07 06:02:56;;;;;;;;;14.00;14.00;;;;;31.91;43.91;100378.00;146607;639;46020;-83
2022/08/07 06:05:57;;;;;;;;;13.00;13.00;;;;;32.06;43.97;100384.50;146606;680;46016;-78
2022/08/07 06:09:00;;;;;;;;;10.25;10.25;;;;;32.12;43.43;100389.63;146606;623;46012;-87
2022/08/07 06:12:04;;;;;;;;;16.25;15.00;;;;;32.11;43.60;100398.56;146606;582;46013;-84
2022/08/07 06:15:01;;;;;;;;;16.25;15.25;;;;;32.00;44.65;100394.62;146608;569;46020;-90
2022/08/07 06:17:59;;;;;;;;;16.50;15.50;;;;;31.81;44.33;100398.06;146606;606;46012;-88
2022/08/07 06:20:57;;;;;;;;;15.75;14.75;;;;;31.64;43.95;100403.22;146607;595;46020;-89
2022/08/07 06:23:58;;;;;;;;;14.00;13.25;;;;;31.54;44.91;100397.38;146606;571;46016;-89
2022/08/07 06:26:56;;;;;;;;;15.50;13.00;;;;;31.54;45.55;100401.88;146608;569;46020;-89
2022/08/07 06:30:07;;;;;;;;;16.25;15.50;;;;;31.49;45.14;100402.91;146605;569;46039;-84
2022/08/07 06:33:13;;;;;;;;;17.75;16.25;;;;;31.38;45.33;100412.34;146607;585;46020;-86
2022/08/07 06:36:18;;;;;;;;;16.50;14.75;;;;;31.19;45.82;100399.63;146607;573;46012;-88
2022/08/07 06:39:39;;;;;;;;;;;;;;;;;;;;;
2022/08/07 06:42:44;;;;;;;;;15.50;15.50;;;;;30.89;46.11;100401.69;146606;565;46016;-79
2022/08/07 06:45:38;;;;;;;;;15.75;15.00;;;;;30.82;46.19;100405.53;146607;586;46020;-86
2022/08/07 06:48:43;;;;;;;;;16.25;15.25;;;;;30.71;46.16;100400.53;146604;580;46016;-81
2022/08/07 06:51:53;;;;;;;;;16.00;14.75;;;;;29.38;45.91;100191.41;146609;652;45021;-85
2022/08/07 06:54:46;;;;;;;;;16.25;15.50;;;;;30.56;45.87;100393.06;146604;631;46016;-81
2022/08/07 06:57:44;;;;;;;;;17.75;17.00;;;;;30.76;46.25;100393.22;146610;619;46012;-85
2022/08/07 07:00:43;;;;;;;;;18.25;16.75;;;;;31.06;45.75;100398.38;146606;594;46923;-83
2022/08/07 07:03:41;;;;;;;;;16.50;14.50;;;;;31.26;44.93;100395.78;146606;575;46020;-86
2022/08/07 07:06:47;;;;;;;;;;;;;;;;;;;;;
2022/08/07 07:09:49;;;;;;;;;14.00;12.75;;;;;31.46;43.87;100394.13;146608;580;45020;-79
2022/08/07 07:13:13;;;;;;;;;15.00;12.50;;;;;31.70;43.06;100401.16;146606;582;46016;-79
2022/08/07 07:16:17;;;;;;;;;16.25;14.25;;;;;31.87;43.41;100400.47;146608;674;46020;-81
2022/08/07 07:19:26;;;;;;;;;16.75;15.00;;;;;31.93;43.74;100408.31;146607;567;46013;-80
2022/08/07 07:22:21;;;;;;;;;14.50;14.25;;;;;32.07;44.25;100404.16;146608;607;46020;-78
2022/08/07 07:25:26;;;;;;;;;16.25;14.75;;;;;32.15;43.58;100405.56;146607;601;46016;-78
2022/08/07 07:28:49;;;;;;;;;15.00;15.00;;;;;32.14;43.41;100409.16;146606;602;46021;-77
2022/08/07 07:32:04;;;;;;;;;19.25;18.25;;;;;32.19;43.43;100409.84;146606;587;46012;-81
2022/08/07 07:35:03;;;;;;;;;14.75;13.75;;;;;32.31;43.94;100407.59;146608;628;46021;-93
2022/08/07 07:38:01;;;;;;;;;11.75;11.75;;;;;32.36;44.06;100418.97;146606;566;46016;-86
2022/08/07 07:41:19;;;;;;;;;13.50;13.25;;;;;32.34;43.46;100419.06;146608;595;45047;-84
2022/08/07 07:44:26;;;;;;;;;15.75;14.00;;;;;32.42;44.64;100426.75;146607;607;46012;-84
2022/08/07 07:47:21;;;;;;;;;13.50;12.00;;;;;32.55;43.63;100417.25;146605;592;47020;-87
2022/08/07 07:50:37;;;;;;;;;13.00;11.75;;;;;32.72;43.50;100418.31;146608;618;46012;-83
2022/08/07 07:53:31;;;;;;;;;15.75;15.00;;;;;32.90;42.76;100412.09;146603;656;46020;-83
2022/08/07 07:56:30;;;;;;;;;13.00;13.00;;;;;33.07;42.65;100414.88;146608;591;45017;-84
2022/08/07 07:59:33;;;;;;;;;13.00;13.00;;;;;33.31;42.44;100420.06;146607;570;46020;-81
2022/08/07 08:02:32;;;;;;;;;14.50;13.25;;;;;33.51;41.95;100417.28;146604;593;46926;-80
2022/08/07 08:05:31;;;;;;;;;14.25;12.75;;;;;33.66;41.39;100417.50;146608;644;46010;-82
2022/08/07 08:08:35;;;;;;;;;12.50;12.50;;;;;33.71;41.82;100410.94;146609;621;46014;-78
2022/08/07 08:11:38;;;;;;;;;12.50;12.50;;;;;33.75;41.62;100414.34;146608;585;46010;-84
2022/08/07 08:14:35;;;;;;;;;12.25;11.75;;;;;33.80;41.44;100412.28;146605;581;46925;-79
2022/08/07 08:17:48;;;;;;;;;16.25;15.00;;;;;33.91;41.72;100426.06;146608;567;46020;-79
2022/08/07 08:20:48;;;;;;;;;12.00;11.50;;;;;34.00;41.07;100422.03;146606;563;46016;-78
2022/08/07 08:27:16;;;;;;;;;12.50;11.75;;;;;34.02;41.06;100412.97;146603;582;46019;-74
2022/08/07 08:30:30;;;;;;;;;15.00;12.50;;;;;34.09;41.12;100410.84;146607;582;46020;-79
2022/08/07 08:33:27;;;;;;;;;13.00;13.00;;;;;34.23;39.93;100413.66;146605;732;46017;-79
2022/08/07 08:36:22;;;;;;;;;12.75;12.75;;;;;34.38;39.35;100414.69;146606;608;46020;-79
2022/08/07 08:39:25;;;;;;;;;10.00;10.00;;;;;34.46;40.24;100417.00;146607;570;46012;-80
2022/08/07 08:42:35;;;;;;;;;14.50;14.00;;;;;34.48;41.19;100431.22;146605;572;46029;-80
2022/08/07 08:46:16;;;;;;;;;14.50;14.50;;;;;33.48;41.93;100240.00;146607;584;46012;-80
2022/08/07 08:49:53;;;;;;;;;;;;;;;;;;;;;
2022/08/07 08:53:46;;;;;;;;;13.25;12.50;;;;;33.82;37.20;100200.63;146604;564;46016;-84
2022/08/07 08:56:57;;;;;;;;;21.75;20.25;;;;;35.04;39.46;100407.63;146606;589;46021;-80
2022/08/07 09:00:21;;;;;;;;;14.75;11.75;;;;;35.32;38.42;100428.50;146605;593;46016;-80
2022/08/07 09:04:12;;;;;;;;;18.25;15.00;;;;;34.57;37.95;100241.44;146607;654;46010;-79
2022/08/07 09:07:46;;;;;;;;;11.25;10.75;;;;;35.08;35.63;100260.97;146604;611;46016;-80
2022/08/07 09:11:01;;;;;;;;;15.00;11.50;;;;;36.25;36.71;100424.94;146607;578;46020;-78
2022/08/07 09:14:27;;;;;;;;;12.00;11.00;;;;;36.37;35.58;100408.00;146606;569;46016;-78
2022/08/07 09:17:46;;;;;;;;;12.00;10.75;;;;;35.00;35.40;100196.75;146608;605;46012;-77
2022/08/07 09:21:33;;;;;;;;;14.75;12.75;;;;;35.96;37.61;100364.59;146607;565;46012;-78
2022/08/07 09:25:20;;;;;;;;;17.50;13.50;;;;;34.62;38.62;100239.38;146606;639;46010;-78
2022/08/07 09:28:22;;;;;;;;;12.75;12.50;;;;;35.37;41.19;100416.50;146605;611;46917;-81
2022/08/07 09:31:54;;;;;;;;;;;;;;;;;;;;;
2022/08/07 09:35:20;;;;;;;;;14.25;13.25;;;;;33.96;44.28;100431.22;146606;604;46012;-76
2022/08/07 09:38:42;;;;;;;;;12.00;11.50;;;;;32.19;44.71;100237.31;146607;573;46010;-77
2022/08/07 09:42:31;;;;;;;;;13.25;12.75;;;;;31.70;46.36;100218.91;146606;578;46016;-77
2022/08/07 09:46:03;;;;;;;;;13.50;13.25;;;;;32.58;47.46;100417.09;146607;642;46020;-78
2022/08/07 09:49:39;;;;;;;;;12.00;12.00;;;;;32.50;46.44;100418.41;146605;611;46016;-80
2022/08/07 09:53:18;;;;;;;;;13.00;13.00;;;;;32.56;45.88;100412.78;146607;633;46010;-78
2022/08/07 09:56:55;;;;;;;;;14.50;13.25;;;;;32.57;45.89;100406.44;146605;596;46012;-79
2022/08/07 10:00:32;;;;;;;;;;;;;;;;;;;;;
2022/08/07 10:04:33;;;;;;;;;10.50;10.50;;;;;31.83;44.49;100229.09;146607;586;46019;-79
2022/08/07 10:08:03;;;;;;;;;11.75;11.75;;;;;31.74;43.98;100214.28;146608;572;46012;-80
2022/08/07 10:11:54;;;;;;;;;15.50;13.75;;;;;33.03;43.29;100402.56;146607;685;46016;-79
2022/08/07 10:15:22;;;;;;;;;13.00;13.00;;;;;33.38;42.64;100410.75;146607;657;47012;-77
2022/08/07 10:18:59;;;;;;;;;12.50;11.00;;;;;32.39;42.16;100228.31;146606;614;46014;-77
2022/08/07 10:22:42;;;;;;;;;15.00;13.75;;;;;32.32;42.25;100222.38;146608;564;46020;-79
2022/08/07 10:26:12;;;;;;;;;13.00;13.00;;;;;32.75;41.68;100279.44;146620;612;46016;-77
2022/08/07 10:29:44;;;;;;;;;14.00;13.75;;;;;33.68;41.99;100388.72;146621;675;46020;-79
2022/08/07 10:33:15;;;;;;;;;13.00;11.50;;;;;33.93;41.91;100404.47;146619;597;46017;-79
2022/08/07 10:37:21;;;;;;;;;15.75;14.25;;;;;33.25;41.25;100210.78;146622;632;46020;-77
2022/08/07 10:40:46;;;;;;;;;13.75;13.75;;;;;34.71;39.79;100408.50;146620;635;45017;-80
2022/08/07 10:43:47;;;;;;;;;13.50;12.50;;;;;34.73;41.07;100411.97;146622;570;46020;-81
2022/08/07 10:46:55;;;;;;;;;12.75;11.25;;;;;34.80;40.35;100408.00;146621;566;46017;-78
2022/08/07 10:50:33;;;;;;;;;13.25;12.75;;;;;34.51;38.51;100317.12;146622;572;46020;-81
2022/08/07 10:54:06;;;;;;;;;13.00;11.50;;;;;35.38;37.74;100418.25;146620;569;46922;-80
2022/08/07 10:57:44;;;;;;;;;11.75;11.75;;;;;34.26;36.67;100198.22;146623;563;45020;-83
2022/08/07 11:00:51;;;;;;;;;11.00;10.50;;;;;35.40;38.33;100410.94;146621;581;46010;-83
2022/08/07 11:03:59;;;;;;;;;11.25;11.00;;;;;35.47;32.84;100402.50;146623;610;45020;-81
2022/08/07 11:07:29;;;;;;;;;10.75;10.00;;;;;35.48;35.65;100388.06;146619;563;46016;-83
2022/08/07 11:11:20;;;;;;;;;9.75;9.75;;;;;34.51;33.58;100191.47;146622;606;46012;-79
2022/08/07 11:14:29;;;;;;;;;10.50;10.50;;;;;35.81;35.91;100385.25;146619;575;46016;-78
2022/08/07 11:17:44;;;;;;;;;13.50;11.00;;;;;35.93;34.17;100381.84;146621;632;45924;-78
2022/08/07 11:20:59;;;;;;;;;14.75;13.75;;;;;36.06;34.34;100390.09;146620;587;46012;-80
2022/08/07 11:24:39;;;;;;;;;10.25;9.25;;;;;35.07;34.52;100200.84;146616;580;45924;-78
2022/08/07 11:28:21;;;;;;;;;11.00;11.00;;;;;35.11;34.48;100190.75;146606;590;46016;-80
2022/08/07 11:31:56;;;;;;;;;9.75;8.00;;;;;36.03;34.76;100379.47;146606;618;46020;-79
2022/08/07 11:35:02;;;;;;;;;8.50;8.50;;;;;36.08;32.04;100374.69;146608;581;47012;-79
2022/08/07 11:38:51;;;;;;;;;13.00;12.50;;;;;36.29;32.92;100372.47;146608;604;46013;-79
2022/08/07 11:42:28;;;;;;;;;10.50;8.75;;;;;36.47;32.49;100383.97;146606;615;46012;-78
2022/08/07 11:46:08;;;;;;;;;7.75;7.50;;;;;36.53;32.16;100362.87;146609;594;45021;-80
2022/08/07 11:49:46;;;;;;;;;8.25;7.50;;;;;36.39;27.91;100370.06;146607;613;46016;-79
2022/08/07 11:53:28;;;;;;;;;10.00;9.00;;;;;36.33;32.43;100370.44;146610;660;45022;-78
2022/08/07 11:57:17;;;;;;;;;8.75;8.75;;;;;35.26;32.53;100181.75;146606;637;46034;-78
2022/08/07 12:00:42;;;;;;;;;8.50;8.50;;;;;36.38;31.30;100355.72;146606;602;46021;-78
2022/08/07 12:04:18;;;;;;;;;8.00;6.50;;;;;36.40;29.06;100350.22;146604;619;46027;-77
2022/08/07 12:07:47;;;;;;;;;8.50;8.50;;;;;36.40;33.21;100352.94;146608;674;46020;-79
2022/08/07 12:11:12;;;;;;;;;8.00;8.00;;;;;36.44;30.62;100346.38;146606;573;46014;-77
2022/08/07 12:14:27;;;;;;;;;11.00;10.00;;;;;36.40;32.79;100348.41;146608;720;46010;-77
2022/08/07 12:18:05;;;;;;;;;10.25;8.25;;;;;35.23;29.99;100160.38;146606;717;46921;-78
2022/08/07 12:21:45;;;;;;;;;11.00;11.00;;;;;36.21;32.28;100354.06;146610;629;45020;-77
2022/08/07 12:29:20;;;;;;;;;8.00;8.00;;;;;34.81;30.75;100145.78;146622;599;46020;-76
2022/08/07 12:32:56;;;;;;;;;10.75;9.50;;;;;34.85;33.30;100151.84;146618;592;46016;-79
2022/08/07 12:36:01;;;;;;;;;9.75;9.75;;;;;36.02;31.71;100346.22;146625;564;45020;-79
2022/08/07 12:39:13;;;;;;;;;10.25;10.25;;;;;35.90;31.63;100344.25;146620;591;46017;-76
2022/08/07 12:42:10;;;;;;;;;10.00;9.00;;;;;35.71;30.68;100336.38;146620;657;46020;-76
2022/08/07 12:45:14;;;;;;;;;10.00;8.00;;;;;35.49;27.70;100349.37;146623;676;45017;-75
2022/08/07 12:48:37;;;;;;;;;9.25;8.75;;;;;35.30;31.07;100341.50;146622;584;45020;-75
2022/08/07 12:51:58;;;;;;;;;10.00;8.50;;;;;35.14;32.93;100344.16;146621;570;45016;-78
2022/08/07 12:55:42;;;;;;;;;10.00;9.00;;;;;33.97;31.40;100146.00;146623;588;45010;-78
2022/08/07 12:58:59;;;;;;;;;8.00;8.00;;;;;35.04;30.57;100334.88;146617;684;46027;-77
2022/08/07 13:02:32;;;;;;;;;8.75;8.75;;;;;33.83;31.84;100135.13;146623;681;45031;-77
2022/08/07 13:06:20;;;;;;;;;13.00;10.00;;;;;33.82;32.17;100132.53;146622;569;46016;-77
2022/08/07 13:09:50;;;;;;;;;14.75;11.25;;;;;34.91;29.64;100321.19;146621;591;46020;-77
2022/08/07 13:13:17;;;;;;;;;10.50;10.50;;;;;34.90;30.30;100320.34;146620;642;46016;-77
2022/08/07 13:16:31;;;;;;;;;9.75;9.75;;;;;34.92;32.34;100318.44;146622;623;46020;-78
2022/08/07 13:23:54;;;;;;;;;12.25;11.75;;;;;35.15;36.84;100316.28;146628;573;45920;-73
2022/08/07 13:27:09;;;;;;;;;11.25;11.25;;;;;35.06;35.09;100325.75;146623;569;46010;-74
2022/08/07 13:30:17;;;;;;;;;12.25;12.25;;;;;34.85;35.59;100308.94;146628;631;45011;-73
2022/08/07 13:33:32;;;;;;;;;12.75;12.00;;;;;34.67;35.57;100304.59;146624;579;45016;-74
2022/08/07 13:36:53;;;;;;;;;12.25;12.25;;;;;34.54;35.46;100307.09;146629;586;45020;-73
2022/08/07 13:40:15;;;;;;;;;16.50;13.75;;;;;34.38;35.25;100301.66;146628;581;45012;-75
2022/08/07 13:43:19;;;;;;;;;12.75;12.75;;;;;34.25;37.32;100306.81;146628;611;45011;-75
2022/08/07 13:46:17;;;;;;;;;16.75;15.00;;;;;34.06;37.38;100294.47;146623;580;46921;-73
2022/08/07 13:49:14;;;;;;;;;10.25;9.00;;;;;33.93;36.12;100302.28;146627;570;45020;-75
2022/08/07 13:52:11;;;;;;;;;11.75;10.75;;;;;33.88;35.79;100291.75;146625;581;45016;-75
2022/08/07 13:55:19;;;;;;;;;14.50;13.75;;;;;33.90;35.37;100284.47;146628;564;45921;-72
2022/08/07 14:02:11;;;;;;;;;13.25;12.25;;;;;33.45;36.55;100213.28;146626;631;45020;-74
2022/08/07 14:05:29;;;;;;;;;13.50;13.50;;;;;33.83;36.80;100292.91;146625;628;45015;-74
2022/08/07 14:08:31;;;;;;;;;14.00;13.00;;;;;33.75;37.10;100302.28;146629;570;45010;-74
2022/08/07 14:11:34;;;;;;;;;11.50;11.50;;;;;33.73;36.55;100296.09;146628;584;45017;-75
2022/08/07 14:14:47;;;;;;;;;14.00;13.75;;;;;33.80;35.73;100281.41;146629;599;45021;-75
2022/08/07 14:17:50;;;;;;;;;12.00;11.50;;;;;33.93;36.16;100276.25;146625;606;45016;-74
2022/08/07 14:21:09;;;;;;;;;10.25;10.25;;;;;34.02;34.98;100283.84;146628;610;45922;-74
2022/08/07 14:24:17;;;;;;;;;13.50;12.25;;;;;34.08;34.88;100279.94;146621;640;46012;-75
2022/08/07 14:27:38;;;;;;;;;17.00;15.00;;;;;34.10;40.10;100287.94;146604;607;47010;-75
2022/08/07 14:30:59;;;;;;;;;17.25;16.00;;;;;33.88;40.08;100280.97;146605;575;46012;-74
2022/08/07 14:33:58;;;;;;;;;17.00;17.00;;;;;33.68;39.16;100289.25;146609;605;46010;-73
2022/08/07 14:36:58;;;;;;;;;14.00;13.25;;;;;33.54;39.54;100290.78;146603;569;47012;-75
2022/08/07 14:40:02;;;;;;;;;16.00;15.50;;;;;33.52;38.43;100283.75;146606;593;46010;-72
2022/08/07 14:43:16;;;;;;;;;14.00;13.50;;;;;33.56;38.50;100279.97;146603;564;46017;-74
2022/08/07 14:46:14;;;;;;;;;17.50;16.00;;;;;33.55;39.30;100279.12;146606;646;46014;-72
2022/08/07 14:49:20;;;;;;;;;12.25;12.25;;;;;33.49;38.72;100281.19;146604;593;46922;-71
2022/08/07 14:52:14;;;;;;;;;14.50;13.50;;;;;33.39;38.56;100279.91;146606;603;46020;-71
2022/08/07 14:55:45;;;;;;;;;18.25;16.25;;;;;33.32;38.79;100274.84;146603;587;46014;-71
2022/08/07 14:59:06;;;;;;;;;17.75;16.00;;;;;33.25;39.49;100275.25;146606;572;46010;-72
2022/08/07 15:02:29;;;;;;;;;17.50;16.00;;;;;32.72;39.97;100208.91;146603;582;46016;-70
2022/08/07 15:05:30;;;;;;;;;15.50;15.00;;;;;33.13;39.38;100286.59;146606;593;46021;-70